createdAt,value
2018-04-07T00:01:59.367Z,8.63
2018-04-07T00:04:26.913Z,8.65
2018-04-07T00:06:54.486Z,8.62
2018-04-07T00:09:22.037Z,8.67
2018-04-07T00:11:49.574Z,8.63
2018-04-07T00:14:17.207Z,8.64
2018-04-07T00:16:44.746Z,8.69
2018-04-07T00:19:12.294Z,8.68
2018-04-07T00:21:39.967Z,8.73
2018-04-07T00:24:07.719Z,8.71
2018-04-07T00:26:35.266Z,8.75
2018-04-07T00:29:02.855Z,8.75
2018-04-07T00:31:30.401Z,8.72
2018-04-07T00:33:57.943Z,8.71
2018-04-07T00:36:25.625Z,8.76
2018-04-07T00:38:53.182Z,8.76
2018-04-07T00:41:20.727Z,8.77
2018-04-07T00:43:48.444Z,8.76
2018-04-07T00:46:16.005Z,8.78
2018-04-07T00:48:43.545Z,8.80
2018-04-07T00:51:11.270Z,8.79
2018-04-07T00:53:38.832Z,8.77
2018-04-07T00:56:06.370Z,8.81
2018-04-07T00:58:33.947Z,8.81
2018-04-07T01:01:01.511Z,8.81
2018-04-07T01:03:29.049Z,8.80
2018-04-07T01:05:56.641Z,8.77
2018-04-07T01:08:24.194Z,8.78
2018-04-07T01:10:51.737Z,8.80
2018-04-07T01:13:19.329Z,8.78
2018-04-07T01:15:46.871Z,8.79
2018-04-07T01:18:14.422Z,8.81
2018-04-07T01:20:42.286Z,8.80
2018-04-07T01:23:09.843Z,8.84
2018-04-07T01:25:37.394Z,8.85
2018-04-07T01:28:05.060Z,8.83
2018-04-07T01:30:32.629Z,8.81
2018-04-07T01:33:00.177Z,8.86
2018-04-07T01:35:27.765Z,8.79
2018-04-07T01:37:55.312Z,8.81
2018-04-07T01:40:22.854Z,8.82
2018-04-07T01:42:50.587Z,8.83
2018-04-07T01:45:18.121Z,8.87
2018-04-07T01:47:45.658Z,8.87
2018-04-07T01:50:13.238Z,8.81
2018-04-07T01:52:40.786Z,8.77
2018-04-07T01:55:08.325Z,8.79
2018-04-07T01:57:36.181Z,8.80
2018-04-07T02:00:03.794Z,8.86
2018-04-07T02:02:31.342Z,8.88
2018-04-07T02:04:58.928Z,8.87
2018-04-07T02:07:26.465Z,8.87
2018-04-07T02:09:54.004Z,8.84
2018-04-07T02:12:21.568Z,8.86
2018-04-07T02:14:49.100Z,8.84
2018-04-07T02:17:16.638Z,8.85
2018-04-07T02:19:44.231Z,8.86
2018-04-07T02:22:11.766Z,8.88
2018-04-07T02:24:39.324Z,8.89
2018-04-07T02:27:07.020Z,8.89
2018-04-07T02:29:34.559Z,8.85
2018-04-07T02:32:02.105Z,8.85
2018-04-07T02:34:29.698Z,8.89
2018-04-07T02:36:57.243Z,8.88
2018-04-07T02:39:24.792Z,8.84
2018-04-07T02:41:52.654Z,8.80
2018-04-07T02:44:20.194Z,8.85
2018-04-07T02:46:47.747Z,8.83
2018-04-07T02:49:15.623Z,8.86
2018-04-07T02:51:43.166Z,8.84
2018-04-07T02:54:10.717Z,8.84
2018-04-07T02:56:38.435Z,8.78
2018-04-07T02:59:05.989Z,8.79
2018-04-07T03:01:33.524Z,8.77
2018-04-07T03:04:01.243Z,8.77
2018-04-07T03:06:28.789Z,8.75
2018-04-07T03:08:56.333Z,8.84
2018-04-07T03:11:23.932Z,8.80
2018-04-07T03:13:51.468Z,8.77
2018-04-07T03:16:19.010Z,8.77
2018-04-07T03:18:46.885Z,8.79
2018-04-07T03:21:14.432Z,8.82
2018-04-07T03:23:41.974Z,8.82
2018-04-07T03:26:09.567Z,8.84
2018-04-07T03:28:37.109Z,8.87
2018-04-07T03:31:04.680Z,8.87
2018-04-07T03:33:32.285Z,8.88
2018-04-07T03:35:59.826Z,8.86
2018-04-07T03:38:27.374Z,8.80
2018-04-07T03:40:54.944Z,8.81
2018-04-07T03:43:22.488Z,8.83
2018-04-07T03:45:50.046Z,8.89
2018-04-07T03:48:17.780Z,8.90
2018-04-07T03:50:45.350Z,8.85
2018-04-07T03:53:12.895Z,8.90
2018-04-07T03:55:40.457Z,8.87
2018-04-07T03:58:08.000Z,8.84
2018-04-07T04:00:35.565Z,8.91
2018-04-07T04:03:03.615Z,8.90
2018-04-07T04:05:31.209Z,8.92
2018-04-07T04:07:58.764Z,8.91
2018-04-07T04:10:26.494Z,8.91
2018-04-07T04:12:54.034Z,8.92
2018-04-07T04:15:21.603Z,8.93
2018-04-07T04:17:49.190Z,8.96
2018-04-07T04:20:16.747Z,9.07
2018-04-07T04:22:44.290Z,9.06
2018-04-07T04:25:11.862Z,9.07
2018-04-07T04:27:39.402Z,9.04
2018-04-07T04:30:06.949Z,9.02
2018-04-07T04:32:34.521Z,9.05
2018-04-07T04:35:02.073Z,9.10
2018-04-07T04:37:29.623Z,9.14
2018-04-07T04:39:57.224Z,9.17
2018-04-07T04:42:24.764Z,9.18
2018-04-07T04:44:52.303Z,9.16
2018-04-07T04:47:19.846Z,9.21
2018-04-07T04:49:47.396Z,9.26
2018-04-07T04:52:15.109Z,9.29
2018-04-07T04:54:42.648Z,9.44
2018-04-07T04:57:10.196Z,9.50
2018-04-07T04:59:37.937Z,9.53
2018-04-07T05:02:05.487Z,9.62
2018-04-07T05:04:33.029Z,9.67
2018-04-07T05:07:00.745Z,9.84
2018-04-07T05:09:28.312Z,10.06
2018-04-07T05:11:55.861Z,10.28
2018-04-07T05:14:23.588Z,10.49
2018-04-07T05:16:51.139Z,10.79
2018-04-07T05:19:18.685Z,10.99
2018-04-07T05:21:46.464Z,11.19
2018-04-07T05:24:14.102Z,11.27
2018-04-07T05:26:41.628Z,11.29
2018-04-07T05:29:09.202Z,11.43
2018-04-07T05:31:36.755Z,11.48
2018-04-07T05:34:04.326Z,11.61
2018-04-07T05:36:32.046Z,11.59
2018-04-07T05:38:59.594Z,11.61
2018-04-07T05:41:27.140Z,11.54
2018-04-07T05:43:54.951Z,11.53
2018-04-07T05:46:22.508Z,11.48
2018-04-07T05:48:50.063Z,11.54
2018-04-07T05:51:17.998Z,11.66
2018-04-07T05:53:45.546Z,11.74
2018-04-07T05:56:13.123Z,11.85
2018-04-07T05:58:40.696Z,11.79
2018-04-07T06:01:08.492Z,11.88
2018-04-07T06:03:36.065Z,12.14
2018-04-07T06:06:03.951Z,12.26
2018-04-07T06:08:31.497Z,12.49
2018-04-07T06:10:59.054Z,12.58
2018-04-07T06:13:26.682Z,12.66
2018-04-07T06:15:54.229Z,12.70
2018-04-07T06:18:21.789Z,12.57
2018-04-07T06:20:49.490Z,12.64
2018-04-07T06:23:17.046Z,12.57
2018-04-07T06:25:44.590Z,12.58
2018-04-07T06:28:12.199Z,12.71
2018-04-07T06:30:39.735Z,12.70
2018-04-07T06:33:07.282Z,12.86
2018-04-07T06:35:34.859Z,12.99
2018-04-07T06:38:02.421Z,13.23
2018-04-07T06:40:29.971Z,13.55
2018-04-07T06:42:57.590Z,13.58
2018-04-07T06:45:25.146Z,13.57
2018-04-07T06:47:52.711Z,13.61
2018-04-07T06:50:20.426Z,13.88
2018-04-07T06:52:47.978Z,14.04
2018-04-07T06:55:15.533Z,14.14
2018-04-07T06:57:43.393Z,14.32
2018-04-07T07:00:10.930Z,14.43
2018-04-07T07:02:38.473Z,14.68
2018-04-07T07:05:06.103Z,14.70
2018-04-07T07:07:33.656Z,14.63
2018-04-07T07:10:01.219Z,14.90
2018-04-07T07:12:28.791Z,14.96
2018-04-07T07:14:56.365Z,14.84
2018-04-07T07:17:23.913Z,14.86
2018-04-07T07:19:51.506Z,14.86
2018-04-07T07:22:19.050Z,14.75
2018-04-07T07:24:46.617Z,14.80
2018-04-07T07:27:14.220Z,14.99
2018-04-07T07:29:41.762Z,15.25
2018-04-07T07:32:09.313Z,15.20
2018-04-07T07:34:37.219Z,15.31
2018-04-07T07:37:04.756Z,15.44
2018-04-07T07:39:32.313Z,15.72
2018-04-07T07:42:00.103Z,16.00
2018-04-07T07:44:27.638Z,16.23
2018-04-07T07:46:55.195Z,16.00
2018-04-07T07:49:22.959Z,16.07
2018-04-07T07:51:50.491Z,16.37
2018-04-07T07:54:18.031Z,16.50
2018-04-07T07:56:45.610Z,16.71
2018-04-07T07:59:13.158Z,17.25
2018-04-07T08:01:40.713Z,17.52
2018-04-07T08:04:08.305Z,17.85
2018-04-07T08:06:35.863Z,17.87
2018-04-07T08:09:03.473Z,18.05
2018-04-07T08:11:31.054Z,18.16
2018-04-07T08:13:58.601Z,17.66
2018-04-07T08:16:26.156Z,17.15
2018-04-07T08:18:53.827Z,16.22
2018-04-07T08:21:21.378Z,15.77
2018-04-07T08:23:48.914Z,15.65
2018-04-07T08:26:16.490Z,16.08
2018-04-07T08:28:44.028Z,16.16
2018-04-07T08:31:11.596Z,16.26
2018-04-07T08:33:39.181Z,16.27
2018-04-07T08:36:06.728Z,16.23
2018-04-07T08:38:34.321Z,15.88
2018-04-07T08:41:01.923Z,15.35
2018-04-07T08:43:29.507Z,15.49
2018-04-07T08:45:57.071Z,15.95
2018-04-07T08:48:24.646Z,16.21
2018-04-07T08:50:52.198Z,16.09
2018-04-07T08:53:19.861Z,16.21
2018-04-07T08:55:47.418Z,16.10
2018-04-07T08:58:14.963Z,15.97
2018-04-07T09:00:42.703Z,16.28
2018-04-07T09:03:10.242Z,16.51
2018-04-07T09:05:37.819Z,16.21
2018-04-07T09:08:05.571Z,15.79
2018-04-07T09:10:33.117Z,15.83
2018-04-07T09:13:00.664Z,15.78
2018-04-07T09:15:28.535Z,15.42
2018-04-07T09:17:56.072Z,15.34
2018-04-07T09:20:23.627Z,15.09
2018-04-07T09:22:51.344Z,15.05
2018-04-07T09:25:18.892Z,14.87
2018-04-07T09:27:46.438Z,14.41
2018-04-07T09:30:14.143Z,14.82
2018-04-07T09:32:41.711Z,15.30
2018-04-07T09:35:09.267Z,15.37
2018-04-07T09:37:36.844Z,15.41
2018-04-07T09:40:04.390Z,15.47
2018-04-07T09:42:31.950Z,15.49
2018-04-07T09:44:59.481Z,15.50
2018-04-07T09:47:27.036Z,15.50
2018-04-07T09:49:56.068Z,15.62
2018-04-07T09:52:23.626Z,15.69
2018-04-07T09:54:51.185Z,15.79
2018-04-07T09:57:18.762Z,16.02
2018-04-07T09:59:46.310Z,16.14
2018-04-07T10:02:19.727Z,16.12
2018-04-07T10:04:47.289Z,16.39
2018-04-07T10:07:14.841Z,16.52
2018-04-07T10:12:36.855Z,16.13
2018-04-07T10:15:04.418Z,16.31
2018-04-07T10:17:31.959Z,16.29
2018-04-07T10:19:59.525Z,16.26
2018-04-07T10:22:27.082Z,16.43
2018-04-07T10:24:54.642Z,16.65
2018-04-07T10:27:22.229Z,16.76
2018-04-07T10:29:49.775Z,17.02
2018-04-07T10:32:17.345Z,17.15
2018-04-07T10:34:45.228Z,17.07
2018-04-07T10:37:12.790Z,17.25
2018-04-07T10:39:40.340Z,17.58
2018-04-07T10:42:08.029Z,17.68
2018-04-07T10:44:35.600Z,18.00
2018-04-07T10:47:03.133Z,18.03
2018-04-07T10:49:31.009Z,18.04
2018-04-07T10:51:58.569Z,18.05
2018-04-07T10:54:26.106Z,18.25
2018-04-07T10:56:53.716Z,18.02
2018-04-07T10:59:21.264Z,17.65
2018-04-07T11:01:48.827Z,17.85
2018-04-07T11:04:16.412Z,18.15
2018-04-07T11:06:43.966Z,18.03
2018-04-07T11:09:11.510Z,17.96
2018-04-07T11:11:39.193Z,17.36
2018-04-07T11:14:06.731Z,17.24
2018-04-07T11:16:34.313Z,17.35
2018-04-07T11:19:01.900Z,17.26
2018-04-07T11:21:29.447Z,17.12
2018-04-07T11:23:57.001Z,16.91
2018-04-07T11:26:24.733Z,16.89
2018-04-07T11:28:52.309Z,17.06
2018-04-07T11:31:19.859Z,17.10
2018-04-07T11:33:47.734Z,17.31
2018-04-07T11:36:15.277Z,17.77
2018-04-07T11:38:42.835Z,17.79
2018-04-07T11:41:10.465Z,18.18
2018-04-07T11:43:38.017Z,18.13
2018-04-07T11:46:05.556Z,17.96
2018-04-07T11:48:33.138Z,17.73
2018-04-07T11:51:00.681Z,17.70
2018-04-07T11:53:28.226Z,17.52
2018-04-07T11:55:55.789Z,17.49
2018-04-07T11:58:23.335Z,17.53
2018-04-07T12:00:50.921Z,17.59
2018-04-07T12:03:18.646Z,17.81
2018-04-07T12:05:46.185Z,17.99
2018-04-07T12:08:13.730Z,18.25
2018-04-07T12:10:41.293Z,18.40
2018-04-07T12:13:08.830Z,18.16
2018-04-07T12:15:36.374Z,18.04
2018-04-07T12:18:03.982Z,18.08
2018-04-07T12:20:31.538Z,17.79
2018-04-07T12:22:59.092Z,17.99
2018-04-07T12:25:26.657Z,18.16
2018-04-07T12:27:54.222Z,18.47
2018-04-07T12:30:21.786Z,18.84
2018-04-07T12:32:49.473Z,19.15
2018-04-07T12:35:17.016Z,19.54
2018-04-07T12:37:44.552Z,19.42
2018-04-07T12:40:12.262Z,19.03
2018-04-07T12:42:39.809Z,18.75
2018-04-07T12:45:07.357Z,18.73
2018-04-07T12:47:34.970Z,18.66
2018-04-07T12:50:02.512Z,18.86
2018-04-07T12:52:30.058Z,18.90
2018-04-07T12:54:57.655Z,19.22
2018-04-07T12:57:25.204Z,19.35
2018-04-07T12:59:52.743Z,19.31
2018-04-07T13:02:20.318Z,19.46
2018-04-07T13:04:47.888Z,19.12
2018-04-07T13:07:15.457Z,18.85
2018-04-07T13:09:43.126Z,18.70
2018-04-07T13:12:10.677Z,18.58
2018-04-07T13:14:38.223Z,18.52
2018-04-07T13:17:05.918Z,18.49
2018-04-07T13:19:33.482Z,18.64
2018-04-07T13:22:01.029Z,18.64
2018-04-07T13:24:28.744Z,18.59
2018-04-07T13:26:56.322Z,18.33
2018-04-07T13:29:23.863Z,18.24
2018-04-07T13:31:51.465Z,18.23
2018-04-07T13:34:19.011Z,18.11
2018-04-07T13:36:46.558Z,18.05
2018-04-07T13:39:14.426Z,17.97
2018-04-07T13:41:41.981Z,17.85
2018-04-07T13:44:09.547Z,17.74
2018-04-07T13:46:37.089Z,17.50
2018-04-07T13:49:04.644Z,17.39
2018-04-07T13:51:32.246Z,17.40
2018-04-07T13:53:59.797Z,17.35
2018-04-07T13:56:27.342Z,17.25
2018-04-07T13:58:55.112Z,17.23
2018-04-07T14:01:22.646Z,17.50
2018-04-07T14:03:50.178Z,17.63
2018-04-07T14:06:17.885Z,17.52
2018-04-07T14:08:45.426Z,17.51
2018-04-07T14:11:12.974Z,17.48
2018-04-07T14:13:40.694Z,17.29
2018-04-07T14:16:08.246Z,17.03
2018-04-07T14:18:35.776Z,16.89
2018-04-07T14:21:03.362Z,16.93
2018-04-07T14:23:30.905Z,16.72
2018-04-07T14:25:58.462Z,16.49
2018-04-07T14:28:26.049Z,16.37
2018-04-07T14:30:53.603Z,16.22
2018-04-07T14:33:21.139Z,16.17
2018-04-07T14:35:49.035Z,16.11
2018-04-07T14:38:16.585Z,16.00
2018-04-07T14:40:44.137Z,16.00
2018-04-07T14:43:11.710Z,15.90
2018-04-07T14:45:39.253Z,15.85
2018-04-07T14:48:06.815Z,15.80
2018-04-07T14:50:34.677Z,15.75
2018-04-07T14:53:02.239Z,15.64
2018-04-07T14:55:29.784Z,15.45
2018-04-07T14:57:57.382Z,15.29
2018-04-07T15:00:24.930Z,15.38
2018-04-07T15:02:52.476Z,15.37
2018-04-07T15:05:20.041Z,15.39
2018-04-07T15:07:47.587Z,15.33
2018-04-07T15:10:15.130Z,15.21
2018-04-07T15:12:42.713Z,15.15
2018-04-07T15:15:10.248Z,15.13
2018-04-07T15:17:37.788Z,15.10
2018-04-07T15:20:05.602Z,15.03
2018-04-07T15:22:33.146Z,15.03
2018-04-07T15:25:00.692Z,15.04
2018-04-07T15:27:28.856Z,15.10
2018-04-07T15:29:56.410Z,15.09
2018-04-07T15:32:23.952Z,15.21
2018-04-07T15:34:51.693Z,15.27
2018-04-07T15:37:19.246Z,15.41
2018-04-07T15:39:46.835Z,15.37
2018-04-07T15:42:14.389Z,15.33
2018-04-07T15:44:41.937Z,15.28
2018-04-07T15:47:09.485Z,15.18
2018-04-07T15:49:37.360Z,15.16
2018-04-07T15:52:04.923Z,15.12
2018-04-07T15:54:32.480Z,15.14
2018-04-07T15:57:00.345Z,15.25
2018-04-07T15:59:27.911Z,15.24
2018-04-07T16:01:55.528Z,15.15
2018-04-07T16:04:23.252Z,15.19
2018-04-07T16:06:50.820Z,15.17
2018-04-07T16:09:18.398Z,15.09
2018-04-07T16:11:46.024Z,14.97
2018-04-07T16:14:13.595Z,14.91
2018-04-07T16:16:41.167Z,14.86
2018-04-07T16:19:08.937Z,14.80
2018-04-07T16:21:36.475Z,14.71
2018-04-07T16:24:04.021Z,14.56
2018-04-07T16:26:31.756Z,14.50
2018-04-07T16:28:59.310Z,14.30
2018-04-07T16:31:26.879Z,14.20
2018-04-07T16:33:54.562Z,14.08
2018-04-07T16:36:22.107Z,14.04
2018-04-07T16:38:49.661Z,13.93
2018-04-07T16:41:17.232Z,13.92
2018-04-07T16:43:44.774Z,13.73
2018-04-07T16:46:12.336Z,13.56
2018-04-07T16:48:39.964Z,13.51
2018-04-07T16:51:07.516Z,13.51
2018-04-07T16:53:35.086Z,13.38
2018-04-07T16:56:02.749Z,13.33
2018-04-07T16:58:30.297Z,13.26
2018-04-07T17:00:57.859Z,13.23
2018-04-07T17:03:25.448Z,13.13
2018-04-07T17:05:52.997Z,13.03
2018-04-07T17:08:20.553Z,12.94
2018-04-07T17:10:48.398Z,12.85
2018-04-07T17:13:15.958Z,12.76
2018-04-07T17:15:43.509Z,12.80
2018-04-07T17:18:11.083Z,12.75
2018-04-07T17:20:39.271Z,12.65
2018-04-07T17:23:06.823Z,12.74
2018-04-07T17:25:34.458Z,12.70
2018-04-07T17:28:02.010Z,12.59
2018-04-07T17:30:29.564Z,12.51
2018-04-07T17:32:57.278Z,12.38
2018-04-07T17:35:24.837Z,12.30
2018-04-07T17:37:52.393Z,12.18
2018-04-07T17:40:19.971Z,12.09
2018-04-07T17:42:47.530Z,12.01
2018-04-07T17:45:15.100Z,11.93
2018-04-07T17:47:42.676Z,11.86
2018-04-07T17:50:10.271Z,11.74
2018-04-07T17:52:37.996Z,11.65
2018-04-07T17:55:05.586Z,11.59
2018-04-07T17:57:33.135Z,11.50
2018-04-07T18:00:00.818Z,11.43
2018-04-07T18:02:28.370Z,11.37
2018-04-07T18:04:55.937Z,11.29
2018-04-07T18:07:23.533Z,11.12
2018-04-07T18:09:51.103Z,11.13
2018-04-07T18:12:18.666Z,11.16
2018-04-07T18:14:46.252Z,11.09
2018-04-07T18:17:13.878Z,11.02
2018-04-07T18:19:41.437Z,10.97
2018-04-07T18:22:09.028Z,10.90
2018-04-07T18:24:36.570Z,10.86
2018-04-07T18:27:04.145Z,10.79
2018-04-07T18:29:31.868Z,10.70
2018-04-07T18:31:59.418Z,10.63
2018-04-07T18:34:26.983Z,10.57
2018-04-07T18:36:54.730Z,10.53
2018-04-07T18:39:22.299Z,10.48
2018-04-07T18:41:49.852Z,10.43
2018-04-07T18:44:17.430Z,10.37
2018-04-07T18:46:44.979Z,10.32
2018-04-07T18:49:12.525Z,10.28
2018-04-07T18:51:40.110Z,10.24
2018-04-07T18:54:07.694Z,10.19
2018-04-07T18:56:35.246Z,10.16
2018-04-07T18:59:03.503Z,10.07
2018-04-07T19:01:31.190Z,10.05
2018-04-07T19:03:58.738Z,10.02
2018-04-07T19:06:26.471Z,9.95
2018-04-07T19:08:54.042Z,9.90
2018-04-07T19:11:21.617Z,9.87
2018-04-07T19:13:49.211Z,9.80
2018-04-07T19:16:16.763Z,9.74
2018-04-07T19:18:44.293Z,9.70
2018-04-07T19:21:12.130Z,9.65
2018-04-07T19:23:39.670Z,9.60
2018-04-07T19:26:07.202Z,9.59
2018-04-07T19:28:34.906Z,9.57
2018-04-07T19:31:02.487Z,9.54
2018-04-07T19:33:30.017Z,9.50
2018-04-07T19:35:57.676Z,9.45
2018-04-07T19:38:25.261Z,9.44
2018-04-07T19:40:52.815Z,9.44
2018-04-07T19:43:20.720Z,9.44
2018-04-07T19:45:48.283Z,9.40
2018-04-07T19:48:15.825Z,9.35
2018-04-07T19:50:43.809Z,9.32
2018-04-07T19:53:11.352Z,9.35
2018-04-07T19:55:38.893Z,9.31
2018-04-07T19:58:06.486Z,9.31
2018-04-07T20:00:34.028Z,9.31
2018-04-07T20:03:01.596Z,9.35
2018-04-07T20:05:29.314Z,9.51
2018-04-07T20:07:56.878Z,9.72
2018-04-07T20:10:24.435Z,9.78
2018-04-07T20:12:52.047Z,9.84
2018-04-07T20:15:19.598Z,9.94
2018-04-07T20:17:47.139Z,10.10
2018-04-07T20:20:15.015Z,10.31
2018-04-07T20:22:42.574Z,10.50
2018-04-07T20:25:10.114Z,10.70
2018-04-07T20:27:37.766Z,10.89
2018-04-07T20:30:05.318Z,11.06
2018-04-07T20:32:32.852Z,11.24
2018-04-07T20:35:00.431Z,11.31
2018-04-07T20:37:27.968Z,11.38
2018-04-07T20:39:55.526Z,11.48
2018-04-07T20:42:28.153Z,11.53
2018-04-07T20:44:55.689Z,11.58
2018-04-07T20:47:24.028Z,11.50
2018-04-07T20:49:52.390Z,11.46
2018-04-07T20:52:19.927Z,11.48
2018-04-07T20:54:47.524Z,11.46
2018-04-07T20:57:15.392Z,11.56
2018-04-07T20:59:42.933Z,11.55
2018-04-07T21:02:10.502Z,11.55
2018-04-07T21:04:38.228Z,11.57
2018-04-07T21:07:05.796Z,11.55
2018-04-07T21:09:33.339Z,11.49
2018-04-07T21:12:01.009Z,11.57
2018-04-07T21:14:28.573Z,11.60
2018-04-07T21:16:56.123Z,11.61
2018-04-07T21:19:23.985Z,11.63
2018-04-07T21:21:51.519Z,11.65
2018-04-07T21:24:19.067Z,11.69
2018-04-07T21:26:46.757Z,11.61
2018-04-07T21:29:14.293Z,11.64
2018-04-07T21:31:41.853Z,11.68
2018-04-07T21:34:09.433Z,11.71
2018-04-07T21:36:37.013Z,11.74
2018-04-07T21:39:04.599Z,11.83
2018-04-07T21:41:32.174Z,11.90
2018-04-07T21:43:59.725Z,11.85
2018-04-07T21:46:27.294Z,11.85
2018-04-07T21:48:54.908Z,11.85
2018-04-07T21:51:22.446Z,11.76
2018-04-07T21:53:49.998Z,11.77
2018-04-07T21:56:17.585Z,11.71
2018-04-07T21:58:45.160Z,11.60
2018-04-07T22:01:12.714Z,11.54
2018-04-07T22:03:40.452Z,11.52
2018-04-07T22:06:08.010Z,11.52
2018-04-07T22:08:35.566Z,11.59
2018-04-07T22:11:03.166Z,11.58
2018-04-07T22:13:30.711Z,11.57
2018-04-07T22:15:58.245Z,11.51
2018-04-07T22:18:25.971Z,11.54
2018-04-07T22:20:53.517Z,11.57
2018-04-07T22:23:21.068Z,11.53
2018-04-07T22:25:48.957Z,11.45
2018-04-07T22:28:16.504Z,11.36
2018-04-07T22:30:44.077Z,11.28
2018-04-07T22:33:11.767Z,11.28
2018-04-07T22:35:39.339Z,11.23
2018-04-07T22:38:06.897Z,11.24
2018-04-07T22:40:34.782Z,11.22
2018-04-07T22:43:02.347Z,11.22
2018-04-07T22:45:29.896Z,11.22
2018-04-07T22:47:57.439Z,11.24
2018-04-07T22:50:24.982Z,11.18
2018-04-07T22:52:52.668Z,11.16
2018-04-07T22:55:20.213Z,11.08
2018-04-07T22:57:47.749Z,11.02
2018-04-07T23:00:19.325Z,11.02
2018-04-07T23:02:46.872Z,10.99
2018-04-07T23:05:14.417Z,10.92
2018-04-07T23:07:43.222Z,10.88
2018-04-07T23:10:10.765Z,10.81
2018-04-07T23:12:38.330Z,10.81
2018-04-07T23:15:06.205Z,10.81
2018-04-07T23:17:33.749Z,10.73
2018-04-07T23:20:01.300Z,10.74
2018-04-07T23:22:28.887Z,10.69
2018-04-07T23:24:56.430Z,10.70
2018-04-07T23:27:24.010Z,10.59
2018-04-07T23:29:51.698Z,10.58
2018-04-07T23:32:19.242Z,10.50
2018-04-07T23:34:46.785Z,10.55
2018-04-07T23:37:14.568Z,10.48
2018-04-07T23:39:42.105Z,10.53
2018-04-07T23:42:09.655Z,10.55
2018-04-07T23:44:37.231Z,10.56
2018-04-07T23:47:04.769Z,10.48
2018-04-07T23:49:32.353Z,10.56
2018-04-07T23:52:00.083Z,10.58
2018-04-07T23:54:27.636Z,10.51
2018-04-07T23:56:55.173Z,10.55
2018-04-07T23:59:22.781Z,10.48
